Tulsa International Airport
KTUL : now visible

Airfield :











YOU CAN JOIN US ON...

 
LOGIN :

Register | Disclaimer

   EN    FR    IT 

 









Legend :    VFR   Marginal VFR   IFR   Intensive IFR   Very Intensive IFR
Visi :
Ceiling :
>= 8 km
>= 3000ft
5 to 8 km
1000 to 3000 ft
1500m to 5 km
500 to 1000 ft
800 to 1500m
200 to 500 ft
< 800m
< 200 ft
Symbols :   Thunderstorms  Fog  Heavy snow  Heavy precipitations  Wind > 20 kt






- Airport Elevation : 677 ft
- IATA code : TUL


KTUL - Tulsa International

CURRENT METAR :
  • 242053Z 21003KT 10SM CLR 27/16 A2989 RMK AO2 SLP115 T02720161 56023

EXPIRED METARs :
  • 241953Z 20003KT 10SM CLR 27/16 A2990 RMK AO2 SLP119 T02670156
  • 241853Z 19006KT 10SM CLR 25/16 A2993 RMK AO2 SLP128 T02500161

TAF KTUL
Valid from the 24 at 18:00 until the 25 at 18:00 UTC


241724Z 2418/2518 17005KT P6SM FEW025
FM250100 VRB03KT P6SM SKC
TEMPO 2510/2514 5SM BR
FM251500 18011KT P6SM SKC
KZKC FIR / North America



MET'MAP, your aeronautical weather chart ! - Copyright ORBIFLY December 2007 - Disclaimer

ORBIFLY MET'MAP TEAM :

Programming & Development : Alexandra Zaïnal
Concept & original design : Baudouin d'Aumeries
Assistance for programming : Marc-Olivier Méhu
Technical & hardware support : Manuel Goepfert

Contact : metmap@orbifly.com




SOURCES & CREDITS :

   NOAA       Earth
Advisory